Wanhe — 3FJH7 — position and weather

sailwx.info

Track history (hours):
 
Tides and Currents Weather Stations Pressure Air Temp Water Temp Dewpoint Dewpoint Depression Visibility Wind Speed Wind Dir Waves Ship Positions

Wanhe

Last reported at 2014-Jun-15 22:10 UTC. Time now 2014-Jul-28 16:25 UTC.
Position N 30°35' E 123°01'.
Warning: this ship's position is 42 days out of date.

Length 280 m; draft 13.3 m.

Type: Cargo ship. MMSI: 351217000.

Date/timePositionNaut miles runAvg speedWind from/ knotsBaromVisibWave heightAir tempDewpointWater temp
2014-Jun-15 22:10N 30°35' E 123°01'1218.6
2014-Jun-15 21:33N 30°34' E 122°48'2419.3
2014-Jun-15 20:19N 30°32' E 122°20'912.4
2014-Jun-15 19:33N 30°34' E 122°09'5 0.4
2014-Jun-15 08:33N 30°37' E 122°05'5 5.0
2014-Jun-15 07:33N 30°34' E 122°10'6 6.0
2014-Jun-15 06:33N 30°33' E 122°17'9 9.4
2014-Jun-15 05:33N 30°32' E 122°28'1514.6
2014-Jun-15 04:34N 30°28' E 122°44'5 2.5
2014-Jun-15 02:23N 30°23' E 122°47'0 0.1
2014-Jun-15 01:29N 30°23' E 122°47'0 0.2
2014-Jun-15 00:17N 30°23' E 122°47'0 0.1
2014-Jun-14 23:23N 30°23' E 122°47'0 0.1
2014-Jun-14 22:29N 30°23' E 122°47'0 0.0
2014-Jun-14 21:29N 30°23' E 122°47'0 0.0
2014-Jun-14 20:29N 30°23' E 122°47'0 0.0
2014-Jun-14 19:23N 30°23' E 122°47'0 0.1
2014-Jun-14 18:17N 30°23' E 122°47'0 0.1
2014-Jun-14 17:23N 30°23' E 122°47'0 0.1
2014-Jun-14 16:23N 30°23' E 122°47'0 0.2
2014-Jun-14 15:29N 30°23' E 122°47'1112.4
2014-Jun-14 14:33N 30°11' E 122°49'1919.0
2014-Jun-14 13:32N 29°53' E 122°42'1616.4
2014-Jun-14 12:33N 29°44' E 122°26'1111.0
2014-Jun-14 11:33N 29°48' E 122°15'1212.0
2014-Jun-14 10:33N 29°55' E 122°03'1 1.3
2014-Jun-14 09:32N 29°54' E 122°02'0 0.0
2014-Jun-14 08:32N 29°54' E 122°02'0 0.0
2014-Jun-14 07:29N 29°54' E 122°02'0 0.0
2014-Jun-14 06:32N 29°54' E 122°02'0 0.0
2014-Jun-14 05:23N 29°54' E 122°02'0 0.0
2014-Jun-14 04:29N 29°54' E 122°02'0 0.0
2014-Jun-14 03:32N 29°54' E 122°02'0 0.0
2014-Jun-14 02:32N 29°54' E 122°02'0 0.0
2014-Jun-14 01:32N 29°54' E 122°02'0 0.0
2014-Jun-14 00:32N 29°54' E 122°02'0 0.0
2014-Jun-13 23:32N 29°54' E 122°02'0 0.0
2014-Jun-13 22:32N 29°54' E 122°02'0 0.0
2014-Jun-13 21:29N 29°54' E 122°02'0 0.0
2014-Jun-13 20:29N 29°54' E 122°02'0 0.0
2014-Jun-13 19:32N 29°54' E 122°02'0 0.0
2014-Jun-13 18:32N 29°54' E 122°02'0 0.0
2014-Jun-13 17:32N 29°54' E 122°02'0 0.0
2014-Jun-13 16:32N 29°54' E 122°02'5 5.1
2014-Jun-13 15:34N 29°55' E 122°07'1312.8
2014-Jun-13 14:33N 29°46' E 122°18'1110.6
2014-Jun-13 13:34N 29°41' E 122°29'6 6.1
2014-Jun-13 12:33N 29°37' E 122°34'0 0.1
2014-Jun-13 11:29N 29°37' E 122°33'0 0.1
2014-Jun-13 10:11N 29°37' E 122°34'0 0.2
2014-Jun-13 09:29N 29°37' E 122°34'0 0.0
2014-Jun-13 08:29N 29°37' E 122°34'0 0.0
2014-Jun-13 07:17N 29°37' E 122°34'1 1.2
2014-Jun-13 06:32N 29°36' E 122°34'3022.7
2014-Jun-13 05:14N 29°06' E 122°33'912.3
2014-Jun-13 04:32N 29°15' E 122°33'12712.1
2014-Jun-12 18:05N 27°17' E 121°42'612.1
2014-Jun-12 17:34N 27°11' E 121°39'2811.8
2014-Jun-12 15:12N 26°46' E 121°25'811.3
2014-Jun-12 14:31N 26°39' E 121°22'1310.9
2014-Jun-12 13:23N 26°28' E 121°15'910.6
2014-Jun-12 12:31N 26°21' E 121°09'5811.0
2014-Jun-12 07:15N 25°30' E 120°38'3512.1
2014-Jun-12 04:19N 24°59' E 120°20'5013.1
2014-Jun-12 00:30N 24°12' E 120°01'1819.0
2014-Jun-11 23:33N 23°54' E 119°59'6419.2
2014-Jun-11 20:14N 22°50' E 120°04'1318.9
2014-Jun-11 19:33N 22°39' E 120°10'1110.6
2014-Jun-11 18:33N 22°33' E 120°20'0 0.1
2014-Jun-11 16:32N 22°33' E 120°20'3 0.4
2014-Jun-11 08:33N 22°32' E 120°17'2 2.3
2014-Jun-11 07:33N 22°32' E 120°14'3 2.8
2014-Jun-11 06:34N 22°31' E 120°11'4 4.1
2014-Jun-11 05:33N 22°30' E 120°07'0 0.5
2014-Jun-11 04:34N 22°30' E 120°06'0 0.4
2014-Jun-11 03:34N 22°30' E 120°06'0 0.4
2014-Jun-11 02:34N 22°29' E 120°06'2 2.3
2014-Jun-11 01:33N 22°29' E 120°04'1413.9
2014-Jun-11 00:33N 22°25' E 119°49'31714.9
2014-Jun-10 03:16N 22°18' E 114°06'2 0.1
2014-Jun-08 22:23N 22°20' E 114°08'16 0.4
2014-Jun-07 08:33N 22°34' E 114°16'0 0.2
2014-Jun-07 07:31N 22°34' E 114°15'0 0.0
2014-Jun-07 06:31N 22°34' E 114°15'0 0.0
2014-Jun-07 05:31N 22°34' E 114°15'0 0.0
2014-Jun-07 04:31N 22°34' E 114°15'0 0.0
2014-Jun-07 03:31N 22°34' E 114°15'0 0.0
2014-Jun-07 02:25N 22°34' E 114°15'0 0.0
2014-Jun-07 01:31N 22°34' E 114°15'0 0.4
2014-Jun-07 00:33N 22°34' E 114°16'26 8.5
2014-Jun-06 21:31N 22°10' E 114°27'  
Track history (hours):
 
Tides and Currents Weather Stations Pressure Air Temp Water Temp Dewpoint Dewpoint Depression Visibility Wind Speed Wind Dir Waves Ship Positions

Wanhe

Last reported at 2014-Jun-15 22:10 UTC. Time now 2014-Jul-28 16:25 UTC.
Position N 30°35' E 123°01'.
Warning: this ship's position is 42 days out of date.

Length 280 m; draft 13.3 m.

Type: Cargo ship. MMSI: 351217000.

Date/timePositionNaut miles runAvg speedWind from/ knotsBaromVisibWave heightAir tempDewpointWater temp
2014-Jun-15 22:10N 30°35' E 123°01'1218.6
2014-Jun-15 21:33N 30°34' E 122°48'2419.3
2014-Jun-15 20:19N 30°32' E 122°20'912.4
2014-Jun-15 19:33N 30°34' E 122°09'5 0.4
2014-Jun-15 08:33N 30°37' E 122°05'5 5.0
2014-Jun-15 07:33N 30°34' E 122°10'6 6.0
2014-Jun-15 06:33N 30°33' E 122°17'9 9.4
2014-Jun-15 05:33N 30°32' E 122°28'1514.6
2014-Jun-15 04:34N 30°28' E 122°44'5 2.5
2014-Jun-15 02:23N 30°23' E 122°47'0 0.1
2014-Jun-15 01:29N 30°23' E 122°47'0 0.2
2014-Jun-15 00:17N 30°23' E 122°47'0 0.1
2014-Jun-14 23:23N 30°23' E 122°47'0 0.1
2014-Jun-14 22:29N 30°23' E 122°47'0 0.0
2014-Jun-14 21:29N 30°23' E 122°47'0 0.0
2014-Jun-14 20:29N 30°23' E 122°47'0 0.0
2014-Jun-14 19:23N 30°23' E 122°47'0 0.1
2014-Jun-14 18:17N 30°23' E 122°47'0 0.1
2014-Jun-14 17:23N 30°23' E 122°47'0 0.1
2014-Jun-14 16:23N 30°23' E 122°47'0 0.2
2014-Jun-14 15:29N 30°23' E 122°47'1112.4
2014-Jun-14 14:33N 30°11' E 122°49'1919.0
2014-Jun-14 13:32N 29°53' E 122°42'1616.4
2014-Jun-14 12:33N 29°44' E 122°26'1111.0
2014-Jun-14 11:33N 29°48' E 122°15'1212.0
2014-Jun-14 10:33N 29°55' E 122°03'1 1.3
2014-Jun-14 09:32N 29°54' E 122°02'0 0.0
2014-Jun-14 08:32N 29°54' E 122°02'0 0.0
2014-Jun-14 07:29N 29°54' E 122°02'0 0.0
2014-Jun-14 06:32N 29°54' E 122°02'0 0.0
2014-Jun-14 05:23N 29°54' E 122°02'0 0.0
2014-Jun-14 04:29N 29°54' E 122°02'0 0.0
2014-Jun-14 03:32N 29°54' E 122°02'0 0.0
2014-Jun-14 02:32N 29°54' E 122°02'0 0.0
2014-Jun-14 01:32N 29°54' E 122°02'0 0.0
2014-Jun-14 00:32N 29°54' E 122°02'0 0.0
2014-Jun-13 23:32N 29°54' E 122°02'0 0.0
2014-Jun-13 22:32N 29°54' E 122°02'0 0.0
2014-Jun-13 21:29N 29°54' E 122°02'0 0.0
2014-Jun-13 20:29N 29°54' E 122°02'0 0.0
2014-Jun-13 19:32N 29°54' E 122°02'0 0.0
2014-Jun-13 18:32N 29°54' E 122°02'0 0.0
2014-Jun-13 17:32N 29°54' E 122°02'0 0.0
2014-Jun-13 16:32N 29°54' E 122°02'5 5.1
2014-Jun-13 15:34N 29°55' E 122°07'1312.8
2014-Jun-13 14:33N 29°46' E 122°18'1110.6
2014-Jun-13 13:34N 29°41' E 122°29'6 6.1
2014-Jun-13 12:33N 29°37' E 122°34'0 0.1
2014-Jun-13 11:29N 29°37' E 122°33'0 0.1
2014-Jun-13 10:11N 29°37' E 122°34'0 0.2
2014-Jun-13 09:29N 29°37' E 122°34'0 0.0
2014-Jun-13 08:29N 29°37' E 122°34'0 0.0
2014-Jun-13 07:17N 29°37' E 122°34'1 1.2
2014-Jun-13 06:32N 29°36' E 122°34'3022.7
2014-Jun-13 05:14N 29°06' E 122°33'912.3
2014-Jun-13 04:32N 29°15' E 122°33'12712.1
2014-Jun-12 18:05N 27°17' E 121°42'612.1
2014-Jun-12 17:34N 27°11' E 121°39'2811.8
2014-Jun-12 15:12N 26°46' E 121°25'811.3
2014-Jun-12 14:31N 26°39' E 121°22'1310.9
2014-Jun-12 13:23N 26°28' E 121°15'910.6
2014-Jun-12 12:31N 26°21' E 121°09'5811.0
2014-Jun-12 07:15N 25°30' E 120°38'3512.1
2014-Jun-12 04:19N 24°59' E 120°20'5013.1
2014-Jun-12 00:30N 24°12' E 120°01'1819.0
2014-Jun-11 23:33N 23°54' E 119°59'6419.2
2014-Jun-11 20:14N 22°50' E 120°04'1318.9
2014-Jun-11 19:33N 22°39' E 120°10'1110.6
2014-Jun-11 18:33N 22°33' E 120°20'0 0.1
2014-Jun-11 16:32N 22°33' E 120°20'3 0.4
2014-Jun-11 08:33N 22°32' E 120°17'2 2.3
2014-Jun-11 07:33N 22°32' E 120°14'3 2.8
2014-Jun-11 06:34N 22°31' E 120°11'4 4.1
2014-Jun-11 05:33N 22°30' E 120°07'0 0.5
2014-Jun-11 04:34N 22°30' E 120°06'0 0.4
2014-Jun-11 03:34N 22°30' E 120°06'0 0.4
2014-Jun-11 02:34N 22°29' E 120°06'2 2.3
2014-Jun-11 01:33N 22°29' E 120°04'1413.9
2014-Jun-11 00:33N 22°25' E 119°49'31714.9
2014-Jun-10 03:16N 22°18' E 114°06'2 0.1
2014-Jun-08 22:23N 22°20' E 114°08'16 0.4
2014-Jun-07 08:33N 22°34' E 114°16'0 0.2
2014-Jun-07 07:31N 22°34' E 114°15'0 0.0
2014-Jun-07 06:31N 22°34' E 114°15'0 0.0
2014-Jun-07 05:31N 22°34' E 114°15'0 0.0
2014-Jun-07 04:31N 22°34' E 114°15'0 0.0
2014-Jun-07 03:31N 22°34' E 114°15'0 0.0
2014-Jun-07 02:25N 22°34' E 114°15'0 0.0
2014-Jun-07 01:31N 22°34' E 114°15'0 0.4
2014-Jun-07 00:33N 22°34' E 114°16'26 8.5
2014-Jun-06 21:31N 22°10' E 114°27'  

Dump ship's entire track history